Time;durP1;ratioP1;P1;durP2;ratioP2;P2;SDS_P1;SDS_P2;PMS_P1;PMS_P2;Temp;Humidity;BMP_temperature;BMP_pressure;BME280_temperature;BME280_humidity;BME280_pressure;Samples;Min_cycle;Max_cycle;Signal;HPM_P1;HPM_P2
2022/09/09 00:00:24;;;;;;;5.87;1.93;;;;;;;;;;5093136;28;20457;-72
2022/09/09 00:02:55;;;;;;;2.03;1.50;;;;;;;;;;5093553;28;20990;-72
2022/09/09 00:05:29;;;;;;;5.17;1.70;;;;;;;;;;5092963;28;20485;-72
2022/09/09 00:08:00;;;;;;;2.37;1.47;;;;;;;;;;5093074;28;20543;-72
2022/09/09 00:10:29;;;;;;;4.60;1.97;;;;;;;;;;5093432;28;20439;-72
2022/09/09 00:13:01;;;;;;;4.73;1.50;;;;;;;;;;5093030;28;20697;-72
2022/09/09 00:15:31;;;;;;;2.73;1.70;;;;;;;;;;5093349;28;20545;-72
2022/09/09 00:18:00;;;;;;;2.03;1.83;;;;;;;;;;5093166;28;20964;-72
2022/09/09 00:20:31;;;;;;;3.30;1.77;;;;;;;;;;5093040;28;20553;-72
2022/09/09 00:23:02;;;;;;;3.90;1.70;;;;;;;;;;5093385;28;20510;-72
2022/09/09 00:25:31;;;;;;;2.23;1.70;;;;;;;;;;5092871;28;20553;-72
2022/09/09 00:27:58;;;;;;;5.43;1.77;;;;;;;;;;5093497;28;20489;-72
2022/09/09 00:30:26;;;;;;;2.40;1.60;;;;;;;;;;5092970;28;20530;-72
2022/09/09 00:32:58;;;;;;;2.23;1.93;;;;;;;;;;5093348;28;21020;-72
2022/09/09 00:35:26;;;;;;;3.17;1.90;;;;;;;;;;5092171;28;20498;-72
2022/09/09 00:37:58;;;;;;;2.30;1.80;;;;;;;;;;5092932;28;20533;-72
2022/09/09 00:40:27;;;;;;;2.60;1.40;;;;;;;;;;5092978;28;20500;-72
2022/09/09 00:43:02;;;;;;;2.83;1.60;;;;;;;;;;5093067;28;21011;-72
2022/09/09 00:45:41;;;;;;;2.20;1.70;;;;;;;;;;5092417;28;20505;-72
2022/09/09 00:48:12;;;;;;;4.03;1.50;;;;;;;;;;5092874;28;20482;-72
2022/09/09 00:50:45;;;;;;;2.57;1.60;;;;;;;;;;5092526;28;20465;-72
2022/09/09 00:53:24;;;;;;;1.97;1.53;;;;;;;;;;5095801;28;20462;-72
2022/09/09 00:55:56;;;;;;;2.10;1.40;;;;;;;;;;5096154;28;20464;-72
2022/09/09 00:58:23;;;;;;;2.00;1.47;;;;;;;;;;5096531;28;20451;-72
2022/09/09 01:00:52;;;;;;;2.20;1.50;;;;;;;;;;5096695;28;20988;-72
2022/09/09 01:03:24;;;;;;;2.17;1.90;;;;;;;;;;5096414;28;20509;-72
2022/09/09 01:05:56;;;;;;;1.50;1.33;;;;;;;;;;5097108;28;20562;-71
2022/09/09 01:08:35;;;;;;;5.80;1.53;;;;;;;;;;5096705;28;20522;-72
2022/09/09 01:11:03;;;;;;;5.47;3.50;;;;;;;;;;5097009;28;20485;-72
2022/09/09 01:13:33;;;;;;;2.30;2.10;;;;;;;;;;5096758;28;20451;-72
2022/09/09 01:16:02;;;;;;;2.10;1.70;;;;;;;;;;5096351;28;20455;-72
2022/09/09 01:18:30;;;;;;;5.80;4.33;;;;;;;;;;5096871;28;20511;-72
2022/09/09 01:21:04;;;;;;;4.30;3.10;;;;;;;;;;5096500;28;20530;-72
2022/09/09 01:23:39;;;;;;;2.17;1.50;;;;;;;;;;5096601;28;20529;-72
2022/09/09 01:26:19;;;;;;;1.93;1.77;;;;;;;;;;5096609;28;20435;-72
2022/09/09 01:28:48;;;;;;;2.50;1.80;;;;;;;;;;5097144;28;20534;-72
2022/09/09 01:31:18;;;;;;;1.93;1.53;;;;;;;;;;5096376;28;20494;-72
2022/09/09 01:33:45;;;;;;;2.23;1.57;;;;;;;;;;5096381;28;20513;-73
2022/09/09 01:36:15;;;;;;;4.70;1.97;;;;;;;;;;5096694;28;20894;-72
2022/09/09 01:38:42;;;;;;;5.70;1.70;;;;;;;;;;5096568;28;20453;-72
2022/09/09 01:41:09;;;;;;;5.10;1.57;;;;;;;;;;5096569;28;20887;-72
2022/09/09 01:43:39;;;;;;;5.00;2.60;;;;;;;;;;5096377;28;20498;-72
2022/09/09 01:46:06;;;;;;;4.50;4.10;;;;;;;;;;5096441;28;20545;-72
2022/09/09 01:48:33;;;;;;;2.93;1.50;;;;;;;;;;5096391;28;20565;-72
2022/09/09 01:51:01;;;;;;;2.00;1.60;;;;;;;;;;5095723;28;20447;-72
2022/09/09 01:53:28;;;;;;;2.27;1.67;;;;;;;;;;5095738;28;20538;-72
2022/09/09 01:56:02;;;;;;;3.20;1.57;;;;;;;;;;5096030;28;20537;-72
2022/09/09 01:58:33;;;;;;;1.90;1.70;;;;;;;;;;5096761;28;20542;-72
2022/09/09 02:01:08;;;;;;;5.20;3.70;;;;;;;;;;5096919;28;20928;-72
2022/09/09 02:03:37;;;;;;;5.20;1.80;;;;;;;;;;5095805;28;20921;-72
2022/09/09 02:06:10;;;;;;;2.30;1.70;;;;;;;;;;5095387;28;20497;-72
2022/09/09 02:08:42;;;;;;;2.50;1.30;;;;;;;;;;5096622;28;20507;-72
2022/09/09 02:11:13;;;;;;;2.30;1.80;;;;;;;;;;5096103;28;20508;-72
2022/09/09 02:13:40;;;;;;;3.70;1.90;;;;;;;;;;5096470;28;21074;-72
2022/09/09 02:16:13;;;;;;;6.27;4.23;;;;;;;;;;5095893;28;20541;-72
2022/09/09 02:18:42;;;;;;;3.37;2.47;;;;;;;;;;5095595;28;20888;-72
2022/09/09 02:21:11;;;;;;;3.63;1.77;;;;;;;;;;5095792;28;20871;-72
2022/09/09 02:23:39;;;;;;;2.00;1.70;;;;;;;;;;5096284;28;20553;-72
2022/09/09 02:26:07;;;;;;;3.13;1.90;;;;;;;;;;5095997;28;20450;-72
2022/09/09 02:28:36;;;;;;;7.30;1.80;;;;;;;;;;5095220;28;20498;-72
2022/09/09 02:31:03;;;;;;;2.73;1.80;;;;;;;;;;5096065;28;20447;-72
2022/09/09 02:33:34;;;;;;;2.70;1.93;;;;;;;;;;5095733;28;20541;-72
2022/09/09 02:36:03;;;;;;;4.73;1.80;;;;;;;;;;5096527;28;20442;-72
2022/09/09 02:38:32;;;;;;;2.43;2.13;;;;;;;;;;5095740;28;20459;-72
2022/09/09 02:41:01;;;;;;;7.37;5.83;;;;;;;;;;5095859;28;20521;-72
2022/09/09 02:43:32;;;;;;;5.63;2.87;;;;;;;;;;5095564;28;20484;-73
2022/09/09 02:46:04;;;;;;;2.10;1.90;;;;;;;;;;5095736;28;20525;-72
2022/09/09 02:48:34;;;;;;;2.50;1.87;;;;;;;;;;5095272;28;20491;-72
2022/09/09 02:51:09;;;;;;;2.47;1.50;;;;;;;;;;5095185;28;20518;-72
2022/09/09 02:53:41;;;;;;;2.57;1.80;;;;;;;;;;5094632;28;20478;-72
2022/09/09 02:56:10;;;;;;;4.00;1.70;;;;;;;;;;5094861;28;20964;-72
2022/09/09 02:58:39;;;;;;;3.97;1.70;;;;;;;;;;5094229;28;20534;-72
2022/09/09 03:01:06;;;;;;;1.80;1.60;;;;;;;;;;5094988;28;20870;-72
2022/09/09 03:03:35;;;;;;;2.47;2.00;;;;;;;;;;5094422;28;20481;-72
2022/09/09 03:06:02;;;;;;;3.57;1.83;;;;;;;;;;5094741;28;20542;-72
2022/09/09 03:08:29;;;;;;;5.40;1.63;;;;;;;;;;5094646;28;20522;-72
2022/09/09 03:10:56;;;;;;;2.97;1.83;;;;;;;;;;5094438;28;20521;-72
2022/09/09 03:13:25;;;;;;;2.30;1.60;;;;;;;;;;5094258;28;20529;-72
2022/09/09 03:15:52;;;;;;;3.60;2.13;;;;;;;;;;5093607;28;20823;-72
2022/09/09 03:18:19;;;;;;;2.07;1.67;;;;;;;;;;5094110;28;20493;-72
2022/09/09 03:20:48;;;;;;;2.87;1.80;;;;;;;;;;5094340;28;20538;-72
2022/09/09 03:23:15;;;;;;;2.13;1.70;;;;;;;;;;5094663;28;20943;-72
2022/09/09 03:25:48;;;;;;;11.80;8.33;;;;;;;;;;5094070;28;20450;-72
2022/09/09 03:28:15;;;;;;;2.97;2.20;;;;;;;;;;5094580;28;20439;-72
2022/09/09 03:30:42;;;;;;;3.30;1.83;;;;;;;;;;5094196;28;21082;-72
2022/09/09 03:33:09;;;;;;;1.93;1.40;;;;;;;;;;5094168;28;20486;-72
2022/09/09 03:35:36;;;;;;;3.40;1.73;;;;;;;;;;5094094;28;21016;-72
2022/09/09 03:38:05;;;;;;;17.20;8.93;;;;;;;;;;5094117;28;20482;-72
2022/09/09 03:40:32;;;;;;;3.53;2.53;;;;;;;;;;5093888;28;20439;-72
2022/09/09 03:42:59;;;;;;;2.97;1.50;;;;;;;;;;5094371;28;20820;-72
2022/09/09 03:45:27;;;;;;;4.17;1.80;;;;;;;;;;5094019;28;20467;-72
2022/09/09 03:47:54;;;;;;;6.13;1.90;;;;;;;;;;5093781;28;20450;-72
2022/09/09 03:50:21;;;;;;;1.70;1.60;;;;;;;;;;5093042;28;20482;-73
2022/09/09 03:52:48;;;;;;;2.83;1.80;;;;;;;;;;5093308;28;20831;-73
2022/09/09 03:55:17;;;;;;;3.37;1.50;;;;;;;;;;5093362;28;20486;-73
2022/09/09 03:57:45;;;;;;;1.93;1.50;;;;;;;;;;5093575;28;20822;-73
2022/09/09 04:00:13;;;;;;;5.80;1.70;;;;;;;;;;5093402;28;20553;-73
2022/09/09 04:02:40;;;;;;;5.50;1.60;;;;;;;;;;5093300;28;20840;-73
2022/09/09 04:05:08;;;;;;;1.90;1.50;;;;;;;;;;5093407;28;20470;-73
2022/09/09 04:07:35;;;;;;;2.30;1.60;;;;;;;;;;5092956;28;20458;-73
2022/09/09 04:10:02;;;;;;;1.90;1.30;;;;;;;;;;5093298;28;20500;-73
2022/09/09 04:12:30;;;;;;;5.80;5.40;;;;;;;;;;5093614;28;20446;-73
2022/09/09 04:14:58;;;;;;;2.80;2.17;;;;;;;;;;5092928;28;20984;-73
2022/09/09 04:17:25;;;;;;;5.50;2.10;;;;;;;;;;5093610;28;20872;-73
2022/09/09 04:19:52;;;;;;;16.53;2.33;;;;;;;;;;5093208;28;20435;-73
2022/09/09 04:22:19;;;;;;;2.03;1.80;;;;;;;;;;5093384;28;20450;-73
2022/09/09 04:24:46;;;;;;;2.90;1.90;;;;;;;;;;5092662;28;20486;-73
2022/09/09 04:27:13;;;;;;;3.50;1.80;;;;;;;;;;5094338;28;20825;-73
2022/09/09 04:29:42;;;;;;;5.53;2.33;;;;;;;;;;5096920;28;20490;-73
2022/09/09 04:32:09;;;;;;;4.00;2.37;;;;;;;;;;5096934;28;20446;-73
2022/09/09 04:34:36;;;;;;;3.30;2.83;;;;;;;;;;5097030;28;20858;-73
2022/09/09 04:37:03;;;;;;;11.23;2.60;;;;;;;;;;5096807;28;20450;-73
2022/09/09 04:39:30;;;;;;;3.77;2.10;;;;;;;;;;5096854;28;20458;-73
2022/09/09 04:41:57;;;;;;;3.03;2.20;;;;;;;;;;5096777;28;20466;-73
2022/09/09 04:44:24;;;;;;;5.63;2.20;;;;;;;;;;5096591;28;20488;-73
2022/09/09 04:46:53;;;;;;;3.80;2.07;;;;;;;;;;5096613;28;20446;-73
2022/09/09 04:49:20;;;;;;;2.00;1.80;;;;;;;;;;5096601;28;20491;-73
2022/09/09 04:51:47;;;;;;;6.50;1.77;;;;;;;;;;5096556;28;20454;-73
2022/09/09 04:54:14;;;;;;;3.50;1.70;;;;;;;;;;5096587;28;20470;-73
2022/09/09 04:56:43;;;;;;;4.83;1.80;;;;;;;;;;5096930;28;20794;-73
2022/09/09 04:59:10;;;;;;;7.23;4.00;;;;;;;;;;5096644;28;20545;-73
2022/09/09 05:01:38;;;;;;;5.10;4.17;;;;;;;;;;5096686;28;20454;-73
2022/09/09 05:04:06;;;;;;;3.33;1.83;;;;;;;;;;5096515;28;20524;-73
2022/09/09 05:06:33;;;;;;;3.00;2.70;;;;;;;;;;5096381;28;20823;-73
2022/09/09 05:09:01;;;;;;;2.07;1.80;;;;;;;;;;5096679;28;20532;-73
2022/09/09 05:11:28;;;;;;;2.80;2.60;;;;;;;;;;5096894;28;20462;-73
2022/09/09 05:13:56;;;;;;;2.40;2.20;;;;;;;;;;5096695;28;20473;-73
2022/09/09 05:16:23;;;;;;;5.93;2.10;;;;;;;;;;5096376;28;20826;-73
2022/09/09 05:18:51;;;;;;;2.43;1.87;;;;;;;;;;5096407;28;20455;-73
2022/09/09 05:21:21;;;;;;;1.83;1.63;;;;;;;;;;5096110;28;21018;-73
2022/09/09 05:23:48;;;;;;;2.90;1.93;;;;;;;;;;5095615;28;20833;-73
2022/09/09 05:26:16;;;;;;;3.23;1.80;;;;;;;;;;5096114;28;20454;-73
2022/09/09 05:28:43;;;;;;;2.20;1.70;;;;;;;;;;5095821;28;20454;-72
2022/09/09 05:31:12;;;;;;;4.10;1.90;;;;;;;;;;5096254;28;20848;-72
2022/09/09 05:33:41;;;;;;;4.57;2.13;;;;;;;;;;5095563;28;20532;-73
2022/09/09 05:36:10;;;;;;;2.40;2.00;;;;;;;;;;5095856;28;20459;-73
2022/09/09 05:38:39;;;;;;;2.40;1.93;;;;;;;;;;5095170;28;20455;-73
2022/09/09 05:41:06;;;;;;;3.67;2.17;;;;;;;;;;5095621;28;20463;-73
2022/09/09 05:43:34;;;;;;;3.43;2.07;;;;;;;;;;5095181;28;20860;-73
2022/09/09 05:46:02;;;;;;;2.73;2.00;;;;;;;;;;5095484;28;20460;-73
2022/09/09 05:48:30;;;;;;;17.93;8.63;;;;;;;;;;5095388;28;20802;-73
2022/09/09 05:50:57;;;;;;;2.80;2.60;;;;;;;;;;5095507;28;20483;-73
2022/09/09 05:53:24;;;;;;;3.60;2.10;;;;;;;;;;5095132;28;20459;-73
2022/09/09 05:55:59;;;;;;;4.87;2.13;;;;;;;;;;5095172;28;20454;-73
2022/09/09 05:58:26;;;;;;;2.77;2.10;;;;;;;;;;5095260;28;20453;-73
2022/09/09 06:00:53;;;;;;;2.83;1.73;;;;;;;;;;5095264;28;20935;-73
2022/09/09 06:03:23;;;;;;;2.40;2.07;;;;;;;;;;5095411;28;20837;-73
2022/09/09 06:05:58;;;;;;;5.10;2.37;;;;;;;;;;5095239;28;20454;-73
2022/09/09 06:08:25;;;;;;;3.70;2.27;;;;;;;;;;5094618;28;20458;-73
2022/09/09 06:10:53;;;;;;;5.53;3.20;;;;;;;;;;5095311;28;20482;-73
2022/09/09 06:13:20;;;;;;;7.50;3.73;;;;;;;;;;5095296;28;20854;-73
2022/09/09 06:15:52;;;;;;;7.30;4.40;;;;;;;;;;5095143;28;20450;-73
2022/09/09 06:18:19;;;;;;;6.30;3.53;;;;;;;;;;5095365;28;20442;-73
2022/09/09 06:20:55;;;;;;;5.77;4.00;;;;;;;;;;5095160;28;20963;-73
2022/09/09 06:23:22;;;;;;;6.50;3.93;;;;;;;;;;5094790;28;20450;-73
2022/09/09 06:25:50;;;;;;;6.50;3.03;;;;;;;;;;5094648;28;20545;-73
2022/09/09 06:28:19;;;;;;;7.73;2.50;;;;;;;;;;5095072;28;20455;-73
2022/09/09 06:30:47;;;;;;;4.37;3.03;;;;;;;;;;5094951;28;20491;-73
2022/09/09 06:33:14;;;;;;;3.70;2.50;;;;;;;;;;5094880;28;20516;-73
2022/09/09 06:35:41;;;;;;;3.60;2.20;;;;;;;;;;5094618;28;20807;-73
2022/09/09 06:38:09;;;;;;;3.10;2.57;;;;;;;;;;5094839;28;20455;-73
2022/09/09 06:40:36;;;;;;;5.13;2.13;;;;;;;;;;5094241;28;20504;-73
2022/09/09 06:43:03;;;;;;;2.87;1.87;;;;;;;;;;5094998;28;20435;-73
2022/09/09 06:45:32;;;;;;;6.43;2.30;;;;;;;;;;5094568;28;20459;-73
2022/09/09 06:47:59;;;;;;;4.07;2.10;;;;;;;;;;5094590;28;20451;-73
2022/09/09 06:50:26;;;;;;;2.80;2.10;;;;;;;;;;5094058;28;20482;-73
2022/09/09 06:52:53;;;;;;;4.03;2.70;;;;;;;;;;5095103;28;20748;-73
2022/09/09 06:55:20;;;;;;;4.57;3.80;;;;;;;;;;5094758;28;20481;-73
2022/09/09 06:57:48;;;;;;;6.53;3.30;;;;;;;;;;5094982;28;20465;-73
2022/09/09 07:00:15;;;;;;;8.53;2.93;;;;;;;;;;5094805;28;20451;-73
2022/09/09 07:02:45;;;;;;;2.57;1.83;;;;;;;;;;5094504;28;21009;-73
2022/09/09 07:05:12;;;;;;;2.67;2.00;;;;;;;;;;5094267;28;20482;-73
2022/09/09 07:07:39;;;;;;;4.50;2.07;;;;;;;;;;5094262;28;20801;-73
2022/09/09 07:10:07;;;;;;;2.10;1.70;;;;;;;;;;5094375;28;20470;-73
2022/09/09 07:12:34;;;;;;;2.90;1.97;;;;;;;;;;5094060;28;20454;-73
2022/09/09 07:15:01;;;;;;;7.33;2.43;;;;;;;;;;5093892;28;20864;-73
2022/09/09 07:17:29;;;;;;;2.43;2.10;;;;;;;;;;5094697;28;20465;-73
2022/09/09 07:19:58;;;;;;;3.53;2.30;;;;;;;;;;5094615;28;20504;-73
2022/09/09 07:22:25;;;;;;;3.43;1.97;;;;;;;;;;5094031;28;20443;-73
2022/09/09 07:24:52;;;;;;;2.63;2.33;;;;;;;;;;5093872;28;20471;-73
2022/09/09 07:27:19;;;;;;;2.80;2.17;;;;;;;;;;5094460;28;20462;-73
2022/09/09 07:29:46;;;;;;;7.60;3.10;;;;;;;;;;5093955;28;20458;-73
2022/09/09 07:32:13;;;;;;;2.70;2.20;;;;;;;;;;5094234;28;20447;-73
2022/09/09 07:34:40;;;;;;;3.13;2.00;;;;;;;;;;5093171;28;20474;-73
2022/09/09 07:37:11;;;;;;;2.83;2.57;;;;;;;;;;5093778;28;20458;-73
2022/09/09 07:39:38;;;;;;;3.50;2.20;;;;;;;;;;5093879;28;20439;-73
2022/09/09 07:42:06;;;;;;;9.70;6.60;;;;;;;;;;5093600;28;20490;-73
2022/09/09 07:44:35;;;;;;;5.27;2.13;;;;;;;;;;5093425;28;20470;-73
2022/09/09 07:47:02;;;;;;;4.73;2.07;;;;;;;;;;5093702;28;20454;-73
2022/09/09 07:49:29;;;;;;;3.97;1.60;;;;;;;;;;5093513;28;20443;-73
2022/09/09 07:51:56;;;;;;;3.57;1.70;;;;;;;;;;5094009;28;20479;-73
2022/09/09 07:54:25;;;;;;;2.03;1.30;;;;;;;;;;5093297;28;20846;-73
2022/09/09 07:56:53;;;;;;;4.70;1.40;;;;;;;;;;5093852;28;20545;-72
2022/09/09 07:59:20;;;;;;;3.33;1.47;;;;;;;;;;5093929;28;20457;-72
2022/09/09 08:01:49;;;;;;;2.83;1.67;;;;;;;;;;5096124;28;20439;-72
2022/09/09 08:04:17;;;;;;;2.80;1.37;;;;;;;;;;5097631;28;20466;-73
2022/09/09 08:06:46;;;;;;;2.23;1.30;;;;;;;;;;5097026;28;20454;-72
2022/09/09 08:09:13;;;;;;;2.13;1.63;;;;;;;;;;5097582;28;20443;-72
2022/09/09 08:11:42;;;;;;;2.00;1.40;;;;;;;;;;5097375;28;20494;-73
2022/09/09 08:14:10;;;;;;;3.73;1.70;;;;;;;;;;5097285;28;20980;-73
2022/09/09 08:16:38;;;;;;;2.37;1.40;;;;;;;;;;5097100;28;20453;-73
2022/09/09 08:19:07;;;;;;;3.40;2.17;;;;;;;;;;5097647;28;20459;-73
2022/09/09 08:21:36;;;;;;;1.97;1.67;;;;;;;;;;5097582;28;20975;-73
2022/09/09 08:24:04;;;;;;;2.50;1.90;;;;;;;;;;5096993;28;20474;-72
2022/09/09 08:26:34;;;;;;;1.90;1.70;;;;;;;;;;5097634;28;20933;-72
2022/09/09 08:29:03;;;;;;;2.30;1.47;;;;;;;;;;5096962;28;20450;-72
2022/09/09 08:31:31;;;;;;;7.10;1.93;;;;;;;;;;5096805;28;20486;-73
2022/09/09 08:33:59;;;;;;;6.60;1.90;;;;;;;;;;5096486;28;20475;-73
2022/09/09 08:36:27;;;;;;;1.73;1.40;;;;;;;;;;5096838;28;20450;-72
2022/09/09 08:38:56;;;;;;;2.67;2.10;;;;;;;;;;5097061;28;20959;-72
2022/09/09 08:41:36;;;;;;;2.27;2.07;;;;;;;;;;5096766;28;21020;-72
2022/09/09 08:44:08;;;;;;;5.67;1.73;;;;;;;;;;5096825;28;20840;-73
2022/09/09 08:46:38;;;;;;;2.53;1.60;;;;;;;;;;5096779;28;20455;-72
2022/09/09 08:49:09;;;;;;;4.20;1.97;;;;;;;;;;5096739;28;20486;-72
2022/09/09 08:51:36;;;;;;;3.07;2.23;;;;;;;;;;5096785;28;20839;-72
2022/09/09 08:54:04;;;;;;;3.77;1.87;;;;;;;;;;5096142;28;20698;-73
2022/09/09 08:56:33;;;;;;;3.00;1.70;;;;;;;;;;5096430;28;20451;-72
2022/09/09 08:59:02;;;;;;;2.43;1.80;;;;;;;;;;5096775;28;20454;-72
2022/09/09 09:01:46;;;;;;;2.33;2.13;;;;;;;;;;5096531;28;20454;-72
2022/09/09 09:04:29;;;;;;;2.40;1.63;;;;;;;;;;5096557;28;20979;-72
2022/09/09 09:07:04;;;;;;;2.93;1.47;;;;;;;;;;5096118;28;20458;-72
2022/09/09 09:09:34;;;;;;;9.23;1.53;;;;;;;;;;5096451;28;20442;-72
2022/09/09 09:12:03;;;;;;;1.80;1.43;;;;;;;;;;5095993;28;20470;-73
2022/09/09 09:14:33;;;;;;;1.50;1.33;;;;;;;;;;5095413;28;20470;-73
2022/09/09 09:17:04;;;;;;;4.63;1.80;;;;;;;;;;5096788;28;20443;-72
2022/09/09 09:19:32;;;;;;;1.90;1.70;;;;;;;;;;5095959;28;21005;-73
2022/09/09 09:22:02;;;;;;;2.03;1.77;;;;;;;;;;5095745;28;20451;-72
2022/09/09 09:24:37;;;;;;;7.63;2.20;;;;;;;;;;5095461;28;20466;-73
2022/09/09 09:27:12;;;;;;;6.50;4.93;;;;;;;;;;5095683;28;20450;-73
2022/09/09 09:29:39;;;;;;;2.67;2.00;;;;;;;;;;5095497;28;20461;-73
2022/09/09 09:32:12;;;;;;;6.60;2.60;;;;;;;;;;5095627;28;20486;-73
2022/09/09 09:34:39;;;;;;;4.33;1.70;;;;;;;;;;5095328;28;20474;-73
2022/09/09 09:37:14;;;;;;;3.13;1.90;;;;;;;;;;5095871;28;20940;-73
2022/09/09 09:39:41;;;;;;;4.53;2.50;;;;;;;;;;5095723;28;20502;-73
2022/09/09 09:42:13;;;;;;;2.70;2.30;;;;;;;;;;5095452;28;20454;-73
2022/09/09 09:44:41;;;;;;;5.50;3.40;;;;;;;;;;5095506;28;20478;-73
2022/09/09 09:47:12;;;;;;;4.53;2.20;;;;;;;;;;5095938;28;20446;-73
2022/09/09 09:49:40;;;;;;;2.90;2.50;;;;;;;;;;5095681;28;20431;-73
2022/09/09 09:52:08;;;;;;;1.97;1.60;;;;;;;;;;5095276;28;20518;-73
2022/09/09 09:54:38;;;;;;;2.67;1.83;;;;;;;;;;5095110;28;20960;-73
2022/09/09 09:57:10;;;;;;;3.80;2.07;;;;;;;;;;5095307;28;20951;-73
2022/09/09 09:59:39;;;;;;;2.47;2.00;;;;;;;;;;5095131;28;20936;-73
2022/09/09 10:02:18;;;;;;;1.70;1.50;;;;;;;;;;5095538;28;20472;-73
2022/09/09 10:04:46;;;;;;;2.57;2.20;;;;;;;;;;5094989;28;20481;-73
2022/09/09 10:07:13;;;;;;;3.73;2.80;;;;;;;;;;5094636;28;20819;-73
2022/09/09 10:09:40;;;;;;;3.50;1.97;;;;;;;;;;5095330;28;20465;-73
2022/09/09 10:12:12;;;;;;;3.57;1.93;;;;;;;;;;5094756;28;20486;-73
2022/09/09 10:14:42;;;;;;;3.90;1.73;;;;;;;;;;5094333;28;20474;-73
2022/09/09 10:17:19;;;;;;;1.90;1.50;;;;;;;;;;5094660;28;20459;-73
2022/09/09 10:19:54;;;;;;;2.50;2.10;;;;;;;;;;5094653;28;20486;-73
2022/09/09 10:22:27;;;;;;;6.63;2.57;;;;;;;;;;5094883;28;20446;-74
2022/09/09 10:25:13;;;;;;;1.80;1.60;;;;;;;;;;5093698;28;20466;-74
2022/09/09 10:27:46;;;;;;;2.17;1.57;;;;;;;;;;5094393;28;20454;-73
2022/09/09 10:30:17;;;;;;;3.00;2.00;;;;;;;;;;5094427;28;20936;-73
2022/09/09 10:32:48;;;;;;;2.37;1.90;;;;;;;;;;5094492;28;20494;-74
2022/09/09 10:35:27;;;;;;;2.67;2.30;;;;;;;;;;5093911;28;20980;-73
2022/09/09 10:38:10;;;;;;;3.73;2.30;;;;;;;;;;5094209;28;20457;-73
2022/09/09 10:40:42;;;;;;;4.07;1.93;;;;;;;;;;5081873;28;20508;-73
2022/09/09 10:43:14;;;;;;;4.80;1.90;;;;;;;;;;5094132;28;21022;-74
2022/09/09 10:45:45;;;;;;;4.13;1.93;;;;;;;;;;5093771;28;20449;-74
2022/09/09 10:48:18;;;;;;;3.53;2.10;;;;;;;;;;5094532;28;20954;-74
2022/09/09 10:50:52;;;;;;;3.60;2.10;;;;;;;;;;5093774;28;20443;-74
2022/09/09 10:53:24;;;;;;;9.10;2.17;;;;;;;;;;5093921;28;20543;-73
2022/09/09 10:55:53;;;;;;;3.10;2.33;;;;;;;;;;5093825;28;20947;-73
2022/09/09 10:58:23;;;;;;;4.67;2.20;;;;;;;;;;5093829;28;21001;-73
2022/09/09 11:00:52;;;;;;;3.03;2.60;;;;;;;;;;5094024;28;20454;-73
2022/09/09 11:03:22;;;;;;;3.70;2.20;;;;;;;;;;5093510;28;20447;-73
2022/09/09 11:05:52;;;;;;;7.80;2.50;;;;;;;;;;5093881;28;20899;-73
2022/09/09 11:08:21;;;;;;;3.90;2.20;;;;;;;;;;5093214;28;20822;-73
2022/09/09 11:10:52;;;;;;;3.50;2.50;;;;;;;;;;5093666;28;20447;-73
2022/09/09 11:13:21;;;;;;;7.57;2.70;;;;;;;;;;5093654;28;21000;-73
2022/09/09 11:15:51;;;;;;;3.93;2.37;;;;;;;;;;5093366;28;20452;-73
2022/09/09 11:18:21;;;;;;;3.00;2.67;;;;;;;;;;5093923;28;20446;-73
2022/09/09 11:20:49;;;;;;;5.50;2.47;;;;;;;;;;5093669;28;20494;-73
2022/09/09 11:23:19;;;;;;;4.27;2.90;;;;;;;;;;5093464;28;20447;-73
2022/09/09 11:25:48;;;;;;;5.70;3.10;;;;;;;;;;5093576;28;20443;-73
2022/09/09 11:28:30;;;;;;;3.37;2.40;;;;;;;;;;5093197;28;20455;-73
2022/09/09 11:31:03;;;;;;;3.60;2.47;;;;;;;;;;5093366;28;20445;-73
2022/09/09 11:33:44;;;;;;;3.07;2.50;;;;;;;;;;5093540;28;20450;-73
2022/09/09 11:36:25;;;;;;;3.97;2.50;;;;;;;;;;5093496;28;20846;-73
2022/09/09 11:38:54;;;;;;;8.73;3.20;;;;;;;;;;5093893;28;20507;-73
2022/09/09 11:41:22;;;;;;;5.03;2.93;;;;;;;;;;5093386;28;20458;-73
2022/09/09 11:43:51;;;;;;;7.03;2.70;;;;;;;;;;5092993;28;20482;-73
2022/09/09 11:46:19;;;;;;;4.80;3.13;;;;;;;;;;5093336;28;20959;-73
2022/09/09 11:48:48;;;;;;;5.53;2.30;;;;;;;;;;5093241;28;20458;-73
2022/09/09 11:51:26;;;;;;;3.27;2.83;;;;;;;;;;5093125;28;20454;-73
2022/09/09 11:53:55;;;;;;;3.80;2.73;;;;;;;;;;5093241;28;20474;-73
2022/09/09 11:56:27;;;;;;;6.13;3.73;;;;;;;;;;5092912;28;20932;-73
2022/09/09 11:58:59;;;;;;;3.10;2.77;;;;;;;;;;5093287;28;20507;-73
2022/09/09 12:01:36;;;;;;;6.80;3.70;;;;;;;;;;5092894;28;20959;-73
2022/09/09 12:04:23;;;;;;;12.53;3.93;;;;;;;;;;5093119;28;20883;-72
2022/09/09 12:06:53;;;;;;;4.13;3.73;;;;;;;;;;5092750;28;20806;-73
2022/09/09 12:09:24;;;;;;;6.37;3.83;;;;;;;;;;5093512;28;20904;-72
2022/09/09 12:11:51;;;;;;;4.60;3.80;;;;;;;;;;5093446;28;20474;-72
2022/09/09 12:14:22;;;;;;;5.13;3.60;;;;;;;;;;5092883;28;20865;-72
2022/09/09 12:16:50;;;;;;;4.43;3.57;;;;;;;;;;5093207;28;20447;-72
2022/09/09 12:19:20;;;;;;;5.20;3.60;;;;;;;;;;5093255;28;20446;-72
2022/09/09 12:21:51;;;;;;;3.30;3.00;;;;;;;;;;5093151;28;20792;-72
2022/09/09 12:24:23;;;;;;;5.97;3.03;;;;;;;;;;5093058;28;20482;-73
2022/09/09 12:26:55;;;;;;;3.83;3.20;;;;;;;;;;5093086;28;20446;-72
2022/09/09 12:29:26;;;;;;;5.10;3.37;;;;;;;;;;5092861;28;20443;-72
2022/09/09 12:31:57;;;;;;;4.30;3.30;;;;;;;;;;5093014;28;21036;-73
2022/09/09 12:34:31;;;;;;;4.43;3.40;;;;;;;;;;5092710;28;20470;-73
2022/09/09 12:37:00;;;;;;;5.20;3.53;;;;;;;;;;5092531;28;20453;-73
2022/09/09 12:39:31;;;;;;;5.20;3.30;;;;;;;;;;5093065;28;20844;-73
2022/09/09 12:41:59;;;;;;;5.10;3.40;;;;;;;;;;5092764;28;20470;-74
2022/09/09 12:44:27;;;;;;;3.90;3.10;;;;;;;;;;5092382;28;20482;-74
2022/09/09 12:46:55;;;;;;;3.53;3.20;;;;;;;;;;5092874;28;20718;-74
2022/09/09 12:49:28;;;;;;;10.87;3.50;;;;;;;;;;5095801;28;20454;-74
2022/09/09 12:51:57;;;;;;;3.83;3.50;;;;;;;;;;5096458;28;20494;-74
2022/09/09 12:54:24;;;;;;;4.07;3.17;;;;;;;;;;5096229;28;20513;-73
2022/09/09 12:56:51;;;;;;;7.87;3.90;;;;;;;;;;5096302;28;20451;-74
2022/09/09 12:59:24;;;;;;;5.30;3.37;;;;;;;;;;5096284;28;20458;-74
2022/09/09 13:01:57;;;;;;;4.30;3.00;;;;;;;;;;5096384;28;20451;-74
2022/09/09 13:04:24;;;;;;;4.53;4.03;;;;;;;;;;5096018;28;20470;-74
2022/09/09 13:06:52;;;;;;;5.47;3.03;;;;;;;;;;5095486;28;20450;-74
2022/09/09 13:09:19;;;;;;;3.37;3.07;;;;;;;;;;5096017;28;20502;-74
2022/09/09 13:11:48;;;;;;;4.90;3.33;;;;;;;;;;5095746;28;20498;-74
2022/09/09 13:14:19;;;;;;;2.80;2.60;;;;;;;;;;5095473;28;20481;-74
2022/09/09 13:16:56;;;;;;;3.17;2.87;;;;;;;;;;5095812;28;20943;-74
2022/09/09 13:19:25;;;;;;;5.90;3.63;;;;;;;;;;5096029;28;20454;-74
2022/09/09 13:21:53;;;;;;;6.40;4.00;;;;;;;;;;5095894;28;20454;-74
2022/09/09 13:24:27;;;;;;;3.60;2.90;;;;;;;;;;5095583;28;20976;-74
2022/09/09 13:26:56;;;;;;;3.50;2.43;;;;;;;;;;5095813;28;20454;-73
2022/09/09 13:29:24;;;;;;;3.90;2.73;;;;;;;;;;5095466;28;20960;-73
2022/09/09 13:31:53;;;;;;;5.33;3.10;;;;;;;;;;5095643;28;20932;-74
2022/09/09 13:34:30;;;;;;;3.93;2.80;;;;;;;;;;5095152;28;20470;-73
2022/09/09 13:37:01;;;;;;;5.83;2.90;;;;;;;;;;5095493;28;20931;-73
2022/09/09 13:39:28;;;;;;;3.83;2.67;;;;;;;;;;5095280;28;20549;-73
2022/09/09 13:41:57;;;;;;;3.13;2.67;;;;;;;;;;5095394;28;20831;-74
2022/09/09 13:44:25;;;;;;;4.30;2.63;;;;;;;;;;5095363;28;20477;-73
2022/09/09 13:47:04;;;;;;;2.57;2.37;;;;;;;;;;5095598;28;20453;-74
2022/09/09 13:49:33;;;;;;;2.80;2.23;;;;;;;;;;5095501;28;20827;-74
2022/09/09 13:52:07;;;;;;;6.10;2.13;;;;;;;;;;5095711;28;20513;-74
2022/09/09 13:54:35;;;;;;;8.77;2.50;;;;;;;;;;5095252;28;20883;-74
2022/09/09 13:57:02;;;;;;;2.90;2.47;;;;;;;;;;5095408;28;20459;-74
2022/09/09 13:59:29;;;;;;;4.27;2.77;;;;;;;;;;5094964;28;20447;-74
2022/09/09 14:01:57;;;;;;;2.80;2.60;;;;;;;;;;5095569;28;20454;-74
2022/09/09 14:04:25;;;;;;;4.67;2.70;;;;;;;;;;5094636;28;20478;-74
2022/09/09 14:06:52;;;;;;;3.30;2.20;;;;;;;;;;5094758;28;20805;-74
2022/09/09 14:09:19;;;;;;;11.23;8.27;;;;;;;;;;5094918;28;20455;-73
2022/09/09 14:11:46;;;;;;;5.03;2.67;;;;;;;;;;5094764;28;20462;-73
2022/09/09 14:14:14;;;;;;;3.77;3.30;;;;;;;;;;5094844;28;20478;-73
2022/09/09 14:16:41;;;;;;;4.17;3.80;;;;;;;;;;5094659;28;20454;-73
2022/09/09 14:19:09;;;;;;;3.13;2.27;;;;;;;;;;5095111;28;20963;-73
2022/09/09 14:21:38;;;;;;;6.37;5.00;;;;;;;;;;5094937;28;20451;-73
2022/09/09 14:24:06;;;;;;;3.20;2.60;;;;;;;;;;5094428;28;20506;-73
2022/09/09 14:26:33;;;;;;;5.37;2.90;;;;;;;;;;5094858;28;20946;-73
2022/09/09 14:29:01;;;;;;;3.27;2.70;;;;;;;;;;5094647;28;20447;-73
2022/09/09 14:31:28;;;;;;;3.40;2.03;;;;;;;;;;5094738;28;20451;-73
2022/09/09 14:33:55;;;;;;;7.03;2.20;;;;;;;;;;5094173;28;20498;-73
2022/09/09 14:36:24;;;;;;;3.07;2.67;;;;;;;;;;5094218;28;20952;-73
2022/09/09 14:38:52;;;;;;;2.30;2.10;;;;;;;;;;5094221;28;20469;-73
2022/09/09 14:41:22;;;;;;;3.70;2.10;;;;;;;;;;5094118;28;20462;-73
2022/09/09 14:43:49;;;;;;;3.77;2.00;;;;;;;;;;5094074;28;20524;-73
2022/09/09 14:46:18;;;;;;;2.90;1.83;;;;;;;;;;5094193;28;20447;-73
2022/09/09 14:48:48;;;;;;;5.87;1.37;;;;;;;;;;5094340;28;20453;-73
2022/09/09 14:51:16;;;;;;;2.33;1.53;;;;;;;;;;5094156;28;20824;-73
2022/09/09 14:53:43;;;;;;;3.07;2.20;;;;;;;;;;5094011;28;20840;-73
2022/09/09 14:56:13;;;;;;;6.90;4.80;;;;;;;;;;5094037;28;20458;-73